createdAt,value
2019-02-28T00:01:21.364Z,27.77
2019-02-28T00:06:23.016Z,30.87
2019-02-28T00:11:24.571Z,29.13
2019-02-28T00:16:26.235Z,22.60
2019-02-28T00:21:27.839Z,32.87
2019-02-28T00:26:29.528Z,31.03
2019-02-28T00:31:31.219Z,27.77
2019-02-28T00:36:32.763Z,29.70
2019-02-28T00:41:34.667Z,28.43
2019-02-28T00:46:36.221Z,29.20
2019-02-28T00:51:37.869Z,28.63
2019-02-28T00:56:39.536Z,27.13
2019-02-28T01:01:43.062Z,29.70
2019-02-28T01:06:44.575Z,28.97
2019-02-28T01:11:46.121Z,30.50
2019-02-28T01:16:50.225Z,29.73
2019-02-28T01:21:51.331Z,25.50
2019-02-28T01:26:52.907Z,27.73
2019-02-28T01:31:54.523Z,25.00
2019-02-28T01:36:56.074Z,25.73
2019-02-28T01:41:57.800Z,26.10
2019-02-28T01:46:59.357Z,31.90
2019-02-28T01:52:00.911Z,24.33
2019-02-28T01:57:02.469Z,22.90
2019-02-28T02:02:06.659Z,26.50
2019-02-28T02:07:07.921Z,26.00
2019-02-28T02:12:09.580Z,25.67
2019-02-28T02:17:12.184Z,25.00
2019-02-28T02:22:13.768Z,21.73
2019-02-28T02:27:16.322Z,23.37
2019-02-28T02:32:18.817Z,25.07
2019-02-28T02:37:21.361Z,16.90
2019-02-28T02:42:23.042Z,21.20
2019-02-28T02:47:31.315Z,22.03
2019-02-28T02:52:30.434Z,21.67
2019-02-28T02:57:32.599Z,22.63
2019-02-28T03:02:34.386Z,20.07
2019-02-28T03:07:36.046Z,23.97
2019-02-28T03:12:37.895Z,22.23
2019-02-28T03:17:39.552Z,23.17
2019-02-28T03:22:42.107Z,21.03
2019-02-28T03:27:43.657Z,22.17
2019-02-28T03:32:45.621Z,19.23
2019-02-28T03:37:47.573Z,17.67
2019-02-28T03:42:49.258Z,19.00
2019-02-28T03:47:50.784Z,20.30
2019-02-28T03:52:52.334Z,21.30
2019-02-28T03:57:53.989Z,25.53
2019-02-28T04:02:58.703Z,21.67
2019-02-28T04:07:59.046Z,29.63
2019-02-28T04:13:00.611Z,26.40
2019-02-28T04:18:06.902Z,24.00
2019-02-28T04:23:05.945Z,26.90
2019-02-28T04:28:07.534Z,25.03
2019-02-28T04:33:10.095Z,28.63
2019-02-28T04:38:13.604Z,40.03
2019-02-28T04:43:17.701Z,41.20
2019-02-28T04:48:20.359Z,31.63
2019-02-28T04:53:21.909Z,29.50
2019-02-28T04:58:25.266Z,35.33
2019-02-28T05:03:28.929Z,28.60
2019-02-28T05:08:30.415Z,32.43
2019-02-28T05:13:31.964Z,30.47
2019-02-28T05:18:33.510Z,28.77
2019-02-28T05:23:36.035Z,26.70
2019-02-28T05:28:41.157Z,31.83
2019-02-28T05:33:42.757Z,24.67
2019-02-28T05:38:44.505Z,25.13
2019-02-28T05:43:46.133Z,24.33
2019-02-28T05:48:47.676Z,26.67
2019-02-28T05:53:49.237Z,27.40
2019-02-28T05:58:52.468Z,27.13
2019-02-28T06:03:54.345Z,26.20
2019-02-28T06:08:55.899Z,25.80
2019-02-28T06:13:57.451Z,24.70
2019-02-28T06:18:59.147Z,25.53
2019-02-28T06:24:00.712Z,21.60
2019-02-28T06:29:05.073Z,27.07
2019-02-28T06:34:08.593Z,22.53
2019-02-28T06:39:09.372Z,26.27
2019-02-28T06:44:11.027Z,35.47
2019-02-28T06:49:12.655Z,29.77
2019-02-28T06:54:14.453Z,28.90
2019-02-28T06:59:16.007Z,23.37
2019-02-28T07:04:17.555Z,26.67
2019-02-28T07:09:19.110Z,27.47
2019-02-28T07:14:20.651Z,28.73
2019-02-28T07:19:22.248Z,28.97
2019-02-28T07:24:23.796Z,36.57
2019-02-28T07:29:25.398Z,37.40
2019-02-28T07:34:27.199Z,31.10
2019-02-28T07:39:28.761Z,25.00
2019-02-28T07:44:30.410Z,25.83
2019-02-28T07:49:35.554Z,26.83
2019-02-28T07:54:35.499Z,25.83
2019-02-28T07:59:40.963Z,23.27
2019-02-28T08:04:40.515Z,24.17
2019-02-28T08:09:42.316Z,31.63
2019-02-28T08:14:47.025Z,28.47
2019-02-28T08:19:47.378Z,34.50
2019-02-28T08:24:48.932Z,25.10
2019-02-28T08:29:50.777Z,31.50
2019-02-28T08:34:55.524Z,21.63
2019-02-28T08:39:55.919Z,24.87
2019-02-28T08:44:58.968Z,26.97
2019-02-28T08:50:00.722Z,26.97
2019-02-28T08:55:09.223Z,21.60
2019-02-28T09:00:17.318Z,20.13
2019-02-28T09:05:25.456Z,20.57
2019-02-28T09:10:24.573Z,20.10
2019-02-28T09:15:31.049Z,17.40
2019-02-28T09:20:32.327Z,17.73
2019-02-28T09:25:33.977Z,26.00
2019-02-28T09:30:44.407Z,20.30
2019-02-28T09:35:46.535Z,16.57
2019-02-28T09:40:48.225Z,23.10
2019-02-28T09:45:50.033Z,19.23
2019-02-28T09:50:58.034Z,17.67
2019-02-28T09:55:55.080Z,17.53
2019-02-28T10:00:57.946Z,26.07
2019-02-28T10:05:59.673Z,18.27
2019-02-28T10:11:01.225Z,20.17
2019-02-28T10:16:02.877Z,24.23
2019-02-28T10:21:05.547Z,23.43
2019-02-28T10:26:07.215Z,27.33
2019-02-28T10:31:08.801Z,19.60
2019-02-28T10:36:12.794Z,34.20
2019-02-28T10:41:15.396Z,31.63
2019-02-28T10:46:20.114Z,34.97
2019-02-28T10:51:20.672Z,26.93
2019-02-28T10:56:22.219Z,24.60
2019-02-28T11:01:26.087Z,34.33
2019-02-28T11:06:28.909Z,25.50
2019-02-28T11:11:30.812Z,27.27
2019-02-28T11:16:32.481Z,24.47
2019-02-28T11:21:34.123Z,28.63
2019-02-28T11:26:35.811Z,28.10
2019-02-28T11:31:37.520Z,29.37
2019-02-28T11:36:39.130Z,28.80
2019-02-28T11:41:40.885Z,29.37
2019-02-28T11:46:43.715Z,25.90
2019-02-28T11:51:53.073Z,28.20
2019-02-28T11:56:56.323Z,24.43
2019-02-28T12:01:57.975Z,28.30
2019-02-28T12:07:00.967Z,27.40
2019-02-28T12:12:03.445Z,28.60
2019-02-28T12:17:05.042Z,30.83
2019-02-28T12:22:09.173Z,26.80
2019-02-28T12:27:10.362Z,33.60
2019-02-28T12:32:11.944Z,36.53
2019-02-28T12:37:14.547Z,31.20
2019-02-28T12:42:16.405Z,25.30
2019-02-28T12:47:18.119Z,24.97
2019-02-28T12:52:19.727Z,30.17
2019-02-28T12:57:22.379Z,38.60
2019-02-28T13:02:24.700Z,22.57
2019-02-28T13:07:26.363Z,26.07
2019-02-28T13:12:27.950Z,32.00
2019-02-28T13:17:31.643Z,28.50
2019-02-28T13:22:34.083Z,27.37
2019-02-28T13:27:36.622Z,34.13
2019-02-28T13:32:39.334Z,21.80
2019-02-28T13:37:42.264Z,23.70
2019-02-28T13:42:44.656Z,20.27
2019-02-28T13:47:47.863Z,27.73
2019-02-28T13:52:52.149Z,27.53
2019-02-28T13:57:53.237Z,26.37
2019-02-28T14:02:57.612Z,22.57
2019-02-28T14:07:59.377Z,21.20
2019-02-28T14:13:01.230Z,19.87
2019-02-28T14:18:03.778Z,27.83
2019-02-28T14:23:08.441Z,28.20
2019-02-28T14:28:10.000Z,24.83
2019-02-28T14:33:11.751Z,25.63
2019-02-28T14:38:13.413Z,33.83
2019-02-28T14:43:15.133Z,21.93
2019-02-28T14:48:17.117Z,28.60
2019-02-28T14:53:18.807Z,27.07
2019-02-28T14:58:22.324Z,29.53
2019-02-28T15:03:24.251Z,25.53
2019-02-28T15:08:27.102Z,24.60
2019-02-28T15:13:30.432Z,25.67
2019-02-28T15:18:32.769Z,22.07
2019-02-28T15:23:35.131Z,19.47
2019-02-28T15:28:36.798Z,22.53
2019-02-28T15:33:38.375Z,26.03
2019-02-28T15:38:41.913Z,27.87
2019-02-28T15:43:44.540Z,28.27
2019-02-28T15:48:46.165Z,30.60
2019-02-28T15:53:49.599Z,31.93
2019-02-28T15:58:51.611Z,21.63
2019-02-28T16:03:53.279Z,30.57
2019-02-28T16:08:54.880Z,29.77
2019-02-28T16:13:57.505Z,35.90
2019-02-28T16:18:59.226Z,38.47
2019-02-28T16:24:02.047Z,27.27
2019-02-28T16:29:04.448Z,35.83
2019-02-28T16:34:08.364Z,33.40
2019-02-28T16:39:09.767Z,36.47
2019-02-28T16:44:12.396Z,46.23
2019-02-28T16:49:14.182Z,47.87
2019-02-28T16:54:15.741Z,49.47
2019-02-28T16:59:17.290Z,44.50
2019-02-28T17:04:18.843Z,47.97
2019-02-28T17:09:22.393Z,39.70
2019-02-28T17:14:24.151Z,35.10
2019-02-28T17:19:28.631Z,32.43
2019-02-28T17:24:29.248Z,39.00
2019-02-28T17:29:32.763Z,47.97
2019-02-28T17:34:34.374Z,62.53
2019-02-28T17:39:35.916Z,58.00
2019-02-28T17:44:45.973Z,54.47
2019-02-28T17:50:27.531Z,64.00
2019-02-28T17:56:22.820Z,46.63
2019-02-28T18:01:32.795Z,38.60
2019-02-28T18:07:00.598Z,44.27
2019-02-28T18:12:27.405Z,40.10
2019-02-28T18:18:08.888Z,48.13
2019-02-28T18:23:35.655Z,57.93
2019-02-28T18:28:51.764Z,66.07
2019-02-28T18:33:56.904Z,79.70
2019-02-28T18:38:58.671Z,75.13
2019-02-28T18:44:03.738Z,69.40
2019-02-28T18:49:03.899Z,71.47
2019-02-28T18:54:05.529Z,67.17
2019-02-28T18:59:07.090Z,59.93
2019-02-28T19:04:08.709Z,76.60
2019-02-28T19:09:21.377Z,75.53
2019-02-28T19:14:23.160Z,92.53
2019-02-28T19:19:24.824Z,180.17
2019-02-28T19:24:26.764Z,127.67
2019-02-28T19:29:28.462Z,128.33
2019-02-28T19:34:30.094Z,83.70
2019-02-28T19:39:31.658Z,79.47
2019-02-28T19:44:33.317Z,69.13
2019-02-28T19:49:34.978Z,69.47
2019-02-28T19:54:36.682Z,64.50
2019-02-28T19:59:38.237Z,75.47
2019-02-28T20:04:40.862Z,76.33
2019-02-28T20:09:42.645Z,70.53
2019-02-28T20:14:44.766Z,82.63
2019-02-28T20:19:46.357Z,80.47
2019-02-28T20:24:47.913Z,75.77
2019-02-28T20:29:55.078Z,73.37
2019-02-28T20:34:53.248Z,76.80
2019-02-28T20:39:54.903Z,76.60
2019-02-28T20:44:56.573Z,75.50
2019-02-28T20:49:58.332Z,87.10
2019-02-28T20:54:59.945Z,82.63
2019-02-28T21:00:08.354Z,82.37
2019-02-28T21:05:10.164Z,87.90
2019-02-28T21:10:12.021Z,76.17
2019-02-28T21:15:13.783Z,76.40
2019-02-28T21:20:15.759Z,85.20
2019-02-28T21:25:17.648Z,84.70
2019-02-28T21:30:26.667Z,75.67
2019-02-28T21:35:28.783Z,80.10
2019-02-28T21:40:30.639Z,79.47
2019-02-28T21:45:33.695Z,91.00
2019-02-28T21:50:35.555Z,86.10
2019-02-28T21:55:37.283Z,93.80
2019-02-28T22:00:39.048Z,92.63
2019-02-28T22:05:41.017Z,95.57
2019-02-28T22:10:42.587Z,95.40
2019-02-28T22:15:44.149Z,92.43
2019-02-28T22:20:45.704Z,90.47
2019-02-28T22:25:47.364Z,94.70
2019-02-28T22:30:49.949Z,95.30
2019-02-28T22:35:53.479Z,83.57
2019-02-28T22:40:55.040Z,86.33
2019-02-28T22:45:56.655Z,82.77
2019-02-28T22:50:58.233Z,90.30
2019-02-28T22:55:59.875Z,85.60
2019-02-28T23:01:15.710Z,92.17
2019-02-28T23:06:17.365Z,78.83
2019-02-28T23:11:19.181Z,82.63
2019-02-28T23:16:20.840Z,85.47
2019-02-28T23:21:22.390Z,84.60
2019-02-28T23:26:24.451Z,91.63
2019-02-28T23:31:55.613Z,89.43
2019-02-28T23:36:57.202Z,95.43
2019-02-28T23:41:58.807Z,83.93
2019-02-28T23:47:00.386Z,89.43
2019-02-28T23:52:01.936Z,82.50
2019-02-28T23:57:03.559Z,93.93
